CPX214 Details

Departure: Benito Juárez International Airport (MMMX) at 0600 UTC
Arrival: Don Miguel Hidalgo y Costilla International Airport (MMGL) at 0700 UTC
Route: TLC6A TLC UJ18 UPN UJ3 ONGEL ONGEL1A
Notes:


Current Weather Information
MMMX 250445Z 08007KT 7SM SCT020 SCT080 BKN200 18/13 A3038 NOSIG RMK 8/532 HZY
MMGL 250341Z 26003KT 8SM BKN020 OVC080 19/16 A3020 RMK 60015 8/47/